createdAt,value
2018-08-31T00:01:24.866Z,81.55
2018-08-31T00:06:47.015Z,79.84
2018-08-31T00:11:57.887Z,80.34
2018-08-31T00:16:52.944Z,80.50
2018-08-31T00:21:47.748Z,80.37
2018-08-31T00:26:59.201Z,77.91
2018-08-31T00:37:16.748Z,75.69
2018-08-31T00:45:35.445Z,75.21
2018-08-31T00:50:30.759Z,77.43
2018-08-31T00:55:25.616Z,74.87
2018-08-31T01:00:21.049Z,75.80
2018-08-31T01:05:16.282Z,74.86
2018-08-31T01:10:11.152Z,74.40
2018-08-31T01:15:06.132Z,74.76
2018-08-31T01:20:00.956Z,74.07
2018-08-31T01:24:55.802Z,73.75
2018-08-31T01:29:50.669Z,74.55
2018-08-31T01:34:45.574Z,74.12
2018-08-31T01:39:40.399Z,74.34
2018-08-31T01:44:35.227Z,73.74
2018-08-31T01:49:30.098Z,72.92
2018-08-31T01:54:24.970Z,73.58
2018-08-31T01:59:19.803Z,72.76
2018-08-31T02:04:14.738Z,75.35
2018-08-31T02:09:14.726Z,74.81
2018-08-31T02:14:09.534Z,74.50
2018-08-31T02:19:04.468Z,75.72
2018-08-31T02:23:59.565Z,76.81
2018-08-31T02:28:54.426Z,76.80
2018-08-31T02:33:49.244Z,76.54
2018-08-31T02:38:44.075Z,76.30
2018-08-31T02:43:38.958Z,75.31
2018-08-31T02:48:34.488Z,73.90
2018-08-31T02:53:29.304Z,72.56
2018-08-31T02:58:24.119Z,73.23
2018-08-31T03:03:19.231Z,72.68
2018-08-31T03:08:14.049Z,72.83
2018-08-31T03:13:08.854Z,73.09
2018-08-31T03:18:03.692Z,73.45
2018-08-31T03:22:58.494Z,73.97
2018-08-31T03:27:53.344Z,73.78
2018-08-31T03:32:48.109Z,73.79
2018-08-31T03:37:42.926Z,74.90
2018-08-31T03:42:37.754Z,75.02
2018-08-31T03:47:32.575Z,74.97
2018-08-31T03:52:27.365Z,73.87
2018-08-31T03:57:22.241Z,73.42
2018-08-31T04:02:17.032Z,75.45
2018-08-31T04:07:12.018Z,75.17
2018-08-31T04:12:06.856Z,77.69
2018-08-31T04:17:01.687Z,83.57
2018-08-31T04:21:56.556Z,89.39
2018-08-31T04:26:51.402Z,93.04
2018-08-31T04:31:46.279Z,94.50
2018-08-31T04:36:42.001Z,92.66
2018-08-31T04:41:36.833Z,94.53
2018-08-31T04:46:31.778Z,94.00
2018-08-31T04:51:26.556Z,92.24
2018-08-31T04:56:21.422Z,93.10
2018-08-31T05:01:16.231Z,95.26
2018-08-31T05:06:11.083Z,96.52
2018-08-31T05:11:06.009Z,97.55
2018-08-31T05:16:00.969Z,96.80
2018-08-31T05:20:55.792Z,97.92
2018-08-31T05:25:50.621Z,97.86
2018-08-31T05:30:45.433Z,98.54
2018-08-31T05:35:40.274Z,98.21
2018-08-31T05:40:35.068Z,97.45
2018-08-31T05:45:29.871Z,98.29
2018-08-31T05:50:24.781Z,98.79
2018-08-31T05:55:19.625Z,97.35
2018-08-31T06:00:14.528Z,98.60
2018-08-31T06:05:10.362Z,99.36
2018-08-31T06:10:05.393Z,97.85
2018-08-31T06:15:00.466Z,96.25
2018-08-31T06:19:55.346Z,97.24
2018-08-31T06:24:50.261Z,98.75
2018-08-31T06:29:45.067Z,99.15
2018-08-31T06:34:39.873Z,98.34
2018-08-31T06:39:34.726Z,100.00
2018-08-31T06:44:29.547Z,99.54
2018-08-31T06:49:24.434Z,97.64
2018-08-31T06:54:19.421Z,95.21
2018-08-31T06:59:14.280Z,97.13
2018-08-31T07:04:09.105Z,97.44
2018-08-31T07:09:04.826Z,96.74
2018-08-31T07:13:59.692Z,96.97
2018-08-31T07:18:54.598Z,97.65
2018-08-31T07:23:49.457Z,91.87
2018-08-31T07:28:44.364Z,92.30
2018-08-31T07:33:39.261Z,95.26
2018-08-31T07:38:34.274Z,95.22
2018-08-31T07:43:29.346Z,96.74
2018-08-31T07:48:24.231Z,95.51
2018-08-31T07:53:19.156Z,95.44
2018-08-31T07:58:14.142Z,96.92
2018-08-31T08:03:09.143Z,96.73
2018-08-31T08:08:04.080Z,94.86
2018-08-31T08:12:59.196Z,93.75
2018-08-31T08:17:54.089Z,95.10
2018-08-31T08:22:49.044Z,93.83
2018-08-31T08:27:44.038Z,92.68
2018-08-31T08:32:38.980Z,93.25
2018-08-31T08:37:33.974Z,94.22
2018-08-31T08:42:29.002Z,89.54
2018-08-31T08:47:23.942Z,89.29
2018-08-31T08:52:18.836Z,89.26
2018-08-31T08:57:15.242Z,89.44
2018-08-31T09:02:10.411Z,85.19
2018-08-31T09:07:05.422Z,88.59
2018-08-31T09:12:00.485Z,85.34
2018-08-31T09:16:55.282Z,85.39
2018-08-31T09:21:50.186Z,81.93
2018-08-31T09:26:45.174Z,84.96
2018-08-31T09:31:40.128Z,86.41
2018-08-31T09:36:35.324Z,86.51
2018-08-31T09:41:30.184Z,87.43
2018-08-31T09:46:25.132Z,88.16
2018-08-31T09:51:20.081Z,87.31
2018-08-31T09:56:14.968Z,90.94
2018-08-31T10:01:15.013Z,94.49
2018-08-31T10:06:09.845Z,94.08
2018-08-31T10:11:04.821Z,93.72
2018-08-31T10:15:59.797Z,94.55
2018-08-31T10:20:54.708Z,95.23
2018-08-31T10:25:49.594Z,91.66
2018-08-31T10:30:44.649Z,92.92
2018-08-31T10:35:39.919Z,94.09
2018-08-31T10:40:34.998Z,94.98
2018-08-31T10:45:29.939Z,94.10
2018-08-31T10:50:24.881Z,96.85
2018-08-31T10:55:19.867Z,97.81
2018-08-31T11:00:14.788Z,96.17
2018-08-31T11:05:09.678Z,94.40
2018-08-31T11:10:04.631Z,96.78
2018-08-31T11:14:59.538Z,96.78
2018-08-31T11:19:54.433Z,96.63
2018-08-31T11:24:49.348Z,95.42
2018-08-31T11:29:44.204Z,98.56
2018-08-31T11:34:39.043Z,96.91
2018-08-31T11:39:33.972Z,96.67
2018-08-31T11:44:28.902Z,95.75
2018-08-31T11:49:23.813Z,96.51
2018-08-31T11:54:18.658Z,96.64
2018-08-31T11:59:13.546Z,95.02
2018-08-31T12:04:08.456Z,95.08
2018-08-31T12:09:03.422Z,89.72
2018-08-31T12:13:58.281Z,94.32
2018-08-31T12:18:53.135Z,89.97
2018-08-31T12:23:48.013Z,90.76
2018-08-31T12:28:42.926Z,90.32
2018-08-31T12:33:37.813Z,91.17
2018-08-31T12:38:32.701Z,90.12
2018-08-31T12:43:27.675Z,93.39
2018-08-31T12:48:22.578Z,94.06
2018-08-31T12:53:17.507Z,92.86
2018-08-31T12:58:12.439Z,96.63
2018-08-31T13:03:07.433Z,95.20
2018-08-31T13:08:02.403Z,94.94
2018-08-31T13:12:57.494Z,93.96
2018-08-31T13:17:52.457Z,93.02
2018-08-31T13:22:47.582Z,92.30
2018-08-31T13:27:42.454Z,91.32
2018-08-31T13:32:37.325Z,89.71
2018-08-31T13:37:32.265Z,86.57
2018-08-31T13:42:27.221Z,88.45
2018-08-31T13:47:22.125Z,85.89
2018-08-31T13:52:17.270Z,88.21
2018-08-31T13:57:12.105Z,91.24
2018-08-31T14:02:08.276Z,90.78
2018-08-31T14:07:03.208Z,90.41
2018-08-31T14:11:58.004Z,89.42
2018-08-31T14:16:52.885Z,90.12
2018-08-31T14:21:47.752Z,91.85
2018-08-31T14:26:42.615Z,88.50
2018-08-31T14:31:37.487Z,87.86
2018-08-31T14:36:32.331Z,87.80
2018-08-31T14:41:27.224Z,90.29
2018-08-31T14:46:22.226Z,88.97
2018-08-31T14:51:17.125Z,88.18
2018-08-31T14:56:11.977Z,87.86
2018-08-31T15:01:07.061Z,87.07
2018-08-31T15:06:02.082Z,88.54
2018-08-31T15:10:56.857Z,89.60
2018-08-31T15:15:51.826Z,90.65
2018-08-31T15:20:46.698Z,92.72
2018-08-31T15:25:41.607Z,93.86
2018-08-31T15:30:36.439Z,95.51
2018-08-31T15:35:31.345Z,98.10
2018-08-31T15:40:26.286Z,98.36
2018-08-31T15:45:21.106Z,97.10
2018-08-31T15:50:15.923Z,98.08
2018-08-31T15:55:10.817Z,98.13
2018-08-31T16:00:06.581Z,99.10
2018-08-31T16:05:01.574Z,99.57
2018-08-31T16:09:56.381Z,100.00
2018-08-31T16:14:51.167Z,99.32
2018-08-31T16:19:46.029Z,100.00
2018-08-31T16:24:40.839Z,100.00
2018-08-31T16:29:35.637Z,99.09
2018-08-31T16:34:30.459Z,100.00
2018-08-31T16:39:25.261Z,100.00
2018-08-31T16:44:20.102Z,100.00
2018-08-31T16:49:14.955Z,100.00
2018-08-31T16:54:10.384Z,100.00
2018-08-31T16:59:05.486Z,100.00
2018-08-31T17:04:00.309Z,100.00
2018-08-31T17:08:55.175Z,100.00
2018-08-31T17:13:49.997Z,100.00
2018-08-31T17:18:44.837Z,100.00
2018-08-31T17:23:39.753Z,100.00
2018-08-31T17:28:39.782Z,100.00
2018-08-31T17:33:39.616Z,100.00
2018-08-31T17:38:34.501Z,100.00
2018-08-31T17:43:29.424Z,100.00
2018-08-31T17:48:24.338Z,100.00
2018-08-31T17:53:19.285Z,100.00
2018-08-31T17:58:14.177Z,100.00
2018-08-31T18:03:09.132Z,100.00
2018-08-31T18:08:04.097Z,100.00
2018-08-31T18:12:59.166Z,100.00
2018-08-31T18:17:54.120Z,100.00
2018-08-31T18:22:49.068Z,100.00
2018-08-31T18:27:44.059Z,100.00
2018-08-31T18:32:40.897Z,100.00
2018-08-31T18:37:34.428Z,100.00
2018-08-31T18:42:29.760Z,100.00
2018-08-31T18:47:24.829Z,100.00
2018-08-31T18:52:19.894Z,100.00
2018-08-31T18:57:14.810Z,100.00
2018-08-31T19:02:09.763Z,100.00
2018-08-31T19:07:04.798Z,100.00
2018-08-31T19:11:59.836Z,100.00
2018-08-31T19:16:54.806Z,100.00
2018-08-31T19:21:49.790Z,100.00
2018-08-31T19:26:44.722Z,100.00
2018-08-31T19:31:39.647Z,100.00
2018-08-31T19:36:34.538Z,100.00
2018-08-31T19:41:29.520Z,100.00
2018-08-31T19:46:24.421Z,100.00
2018-08-31T19:51:19.326Z,100.00
2018-08-31T19:56:14.261Z,100.00
2018-08-31T20:01:09.132Z,100.00
2018-08-31T20:06:04.062Z,100.00
2018-08-31T20:10:58.888Z,100.00
2018-08-31T20:15:53.759Z,100.00
2018-08-31T20:20:48.700Z,100.00
2018-08-31T20:25:43.803Z,100.00
2018-08-31T20:30:38.675Z,100.00
2018-08-31T20:35:33.474Z,100.00
2018-08-31T20:40:28.287Z,100.00
2018-08-31T20:45:23.153Z,100.00
2018-08-31T20:50:17.983Z,100.00
2018-08-31T20:55:12.780Z,100.00
2018-08-31T21:00:08.170Z,100.00
2018-08-31T21:05:03.012Z,100.00
2018-08-31T21:09:57.807Z,100.00
2018-08-31T21:14:52.665Z,100.00
2018-08-31T21:19:47.476Z,100.00
2018-08-31T21:24:42.427Z,100.00
2018-08-31T21:29:37.220Z,100.00
2018-08-31T21:34:32.010Z,100.00
2018-08-31T21:39:26.805Z,100.00
2018-08-31T21:44:21.660Z,100.00
2018-08-31T21:49:16.489Z,100.00
2018-08-31T21:54:11.298Z,100.00
2018-08-31T21:59:06.281Z,100.00
2018-08-31T22:04:01.127Z,100.00
2018-08-31T22:08:56.021Z,100.00
2018-08-31T22:13:50.807Z,100.00
2018-08-31T22:18:45.641Z,100.00
2018-08-31T22:23:40.430Z,100.00
2018-08-31T22:28:35.242Z,100.00
2018-08-31T22:33:30.138Z,99.29
2018-08-31T22:38:24.961Z,100.00
2018-08-31T22:43:20.797Z,99.06
2018-08-31T22:48:15.625Z,99.20
2018-08-31T22:53:10.441Z,99.55
2018-08-31T22:58:05.305Z,100.00
2018-08-31T23:03:00.157Z,100.00
2018-08-31T23:08:00.083Z,97.79
2018-08-31T23:12:54.952Z,100.00
2018-08-31T23:17:51.801Z,100.00
2018-08-31T23:22:46.685Z,100.00
2018-08-31T23:27:41.519Z,96.93
2018-08-31T23:32:36.369Z,98.92
2018-08-31T23:37:31.214Z,99.52
2018-08-31T23:42:26.062Z,100.00
2018-08-31T23:47:20.874Z,100.00
2018-08-31T23:52:15.713Z,100.00
2018-08-31T23:57:10.582Z,100.00
